Startpagina
METAR-TAF:

METAR-TAF

Vliegvelden :

Militair vliegvled

Tulln an der Donau, Oostenrijk

breedte: 48-19N, lengte: 016-07E, hoogte: 175 m

METAR: ontbreekt

Tijdstip: 23:37 (22:37 UTC)

Verwachting

Dit bericht is 11 uur en het 22 minuten geleden gemaakt, om 11:15 UTC
Verwachting geldig van 10 om 12 UTC tot 10 om 21 UTC
Wind 15 kt uit het westen
Zicht 10 km of meer
Weinig wolken op 2000 ft
Verspreide wolken op 3000 ft
Tijdelijke
van 10 om 09 UTC tot 10 om 16 UTC
Wind 20 kt uit het westnoordwesten met uitschieters tot 30 kt
Verspreide wolken op 2000 ft
Gebroken wolken op 4000 ft

TAF: LOXT 101115Z 1012/1021 27015KT 9999 FEW020 SCT030 TEMPO 1009/1016 29020G30KT SCT020 BKN040

Waarnemingen en weersverwachtingen van meer dan 4000 vliegvelden (METAR en TAF).

De beschikbare stations zijn de gele en rode punten op de kaart.

Ga met uw muis naar het station om de naam te zien.

Klik dan om waarnemingen en weersverwachtingen te zien.

kaart wijzigen: klik op de groene knoppen met een zwart kruis om in te zoomen, op de groene knop met een streepje om uit te zoomen of op de groene pijlen voor aangrenzende kaarten.


METAR-TAF: